»·PEaware :: N782FL L17-KSAN

N782FL :: L17-KSAN

FLIGHT INFORMATION

Flight Status: Arrived
Operator: Privately registered:
United States
More flights under this callsign
Pilot: Luis B. (14232)
Aircraft: BEECH AIRCRAFT BARON
(BE58)
More flights by this aircraft type
Origin: L17 Taft-Kern Co
United States
Destination: KSAN San Diego Intl-Lindbergh
United States
More flights between these airports :: More routes between these airports
Route: +LHS V459 SLI V23 MZB
File this flight plan on PilotEdge
Remarks:
Altitude:
(Current/Filed)
15,000ft
Speed:
(Current/Filed)
164kts
Departed: 06-Dec-17 11:57 AM
Arrived: 06-Dec-17 01:08 PM
Distance/Time
Traveled:
183nm/1:11
Distance/Time
To Go:
Arrived

Flight Plot

Page will automatically refresh every two minutes.

Flight plan parsing failed; only flown route is shown


Map Options




Map Legend


Flown Route
Filed Route
Departure Airport
Arrival Airport
Navaid (VOR, NDB)
Fix

Horizontal Profiles

Position Reports

Time Latitude Longitude Heading Altitude Ground
Speed
06-Dec-17 11:48 35.140195 -119.445271 42 878ft 0kts
06-Dec-17 11:49 35.140195 -119.445271 42 878ft 0kts
06-Dec-17 11:50 35.140195 -119.445271 42 878ft 0kts
06-Dec-17 11:51 35.140195 -119.445271 42 878ft 0kts
06-Dec-17 11:52 35.140195 -119.445271 42 878ft 0kts
06-Dec-17 11:53 35.140195 -119.445271 42 878ft 0kts
06-Dec-17 11:54 35.140195 -119.445271 42 878ft 0kts
06-Dec-17 11:55 35.140202 -119.445263 42 878ft 1kts
06-Dec-17 11:56 35.140594 -119.444025 330 878ft 0kts
06-Dec-17 11:57 35.140725 -119.443964 350 878ft 0kts
06-Dec-17 11:58 35.140724 -119.443963 350 878ft 0kts
06-Dec-17 11:59 35.140799 -119.443679 86 878ft 9kts
06-Dec-17 12:00 35.141951 -119.436000 80 878ft 29kts
06-Dec-17 12:01 35.142203 -119.434328 258 878ft 31kts
06-Dec-17 12:02 35.128338 -119.466199 187 2341ft 153kts
06-Dec-17 12:03 35.108360 -119.434081 78 4713ft 146kts
06-Dec-17 12:04 35.116940 -119.384812 75 6702ft 151kts
06-Dec-17 12:05 35.094684 -119.338634 132 8074ft 177kts
06-Dec-17 12:06 35.060399 -119.294998 132 9330ft 178kts
06-Dec-17 12:07 35.027992 -119.251550 119 10492ft 171kts
06-Dec-17 12:08 35.004198 -119.205348 116 11656ft 152kts
06-Dec-17 12:09 34.982312 -119.161762 116 12552ft 152kts
06-Dec-17 12:10 34.959974 -119.117700 115 13349ft 153kts
06-Dec-17 12:11 34.937481 -119.073404 114 14098ft 155kts
06-Dec-17 12:12 34.914761 -119.028716 114 14802ft 156kts
06-Dec-17 12:13 34.892654 -118.985205 115 14997ft 177kts
06-Dec-17 12:14 34.866606 -118.934735 114 14989ft 173kts
06-Dec-17 12:15 34.841344 -118.885445 114 14993ft 171kts
06-Dec-17 12:16 34.816350 -118.836553 114 15003ft 169kts
06-Dec-17 12:17 34.791411 -118.787823 114 15016ft 169kts
06-Dec-17 12:18 34.766545 -118.739321 114 15017ft 169kts
06-Dec-17 12:19 34.741634 -118.690787 114 15019ft 169kts
06-Dec-17 12:20 34.716696 -118.642263 114 15021ft 169kts
06-Dec-17 12:21 34.691562 -118.593420 114 15005ft 170kts
06-Dec-17 12:22 34.653523 -118.559733 147 14987ft 181kts
06-Dec-17 12:23 34.608047 -118.532740 147 14955ft 182kts
06-Dec-17 12:24 34.562470 -118.505780 147 14936ft 182kts
06-Dec-17 12:25 34.517064 -118.479014 147 14936ft 181kts
06-Dec-17 12:26 34.471790 -118.452381 147 14932ft 181kts
06-Dec-17 12:27 34.426374 -118.425694 147 14920ft 182kts
06-Dec-17 12:28 34.380909 -118.399013 147 14904ft 182kts
06-Dec-17 12:29 34.335310 -118.372302 147 14893ft 182kts
06-Dec-17 12:30 34.303145 -118.353474 147 14886ft 182kts
06-Dec-17 12:31 34.259151 -118.327834 148 14880ft 182kts
06-Dec-17 12:32 34.214644 -118.299142 146 14876ft 182kts
06-Dec-17 12:33 34.169184 -118.271879 148 14879ft 182kts
06-Dec-17 12:34 34.123344 -118.245522 148 14882ft 183kts
06-Dec-17 12:35 34.077692 -118.219681 148 15028ft 174kts
06-Dec-17 12:36 34.033344 -118.194530 148 15060ft 179kts
06-Dec-17 12:37 33.987873 -118.168969 149 15054ft 182kts
06-Dec-17 12:38 33.941882 -118.143176 148 15047ft 183kts
06-Dec-17 12:39 33.895915 -118.117429 149 15038ft 183kts
06-Dec-17 12:40 33.849883 -118.091931 149 15035ft 182kts
06-Dec-17 12:41 33.803904 -118.066286 149 15035ft 182kts
06-Dec-17 12:42 33.762940 -118.034232 123 15023ft 174kts
06-Dec-17 12:43 33.728015 -117.988504 128 14513ft 195kts
06-Dec-17 12:44 33.688851 -117.941667 129 14043ft 198kts
06-Dec-17 12:45 33.651001 -117.896614 128 14033ft 188kts
06-Dec-17 12:46 33.614437 -117.852975 128 14034ft 184kts
06-Dec-17 12:47 33.578202 -117.809724 128 14035ft 183kts
06-Dec-17 12:48 33.542190 -117.766576 129 14035ft 183kts
06-Dec-17 12:49 33.505729 -117.724127 129 14035ft 183kts
06-Dec-17 12:50 33.469191 -117.681678 129 14035ft 183kts
06-Dec-17 12:51 33.432506 -117.639120 129 14035ft 183kts
06-Dec-17 12:52 33.395821 -117.596623 129 14035ft 184kts
06-Dec-17 12:53 33.359088 -117.554131 129 14032ft 184kts
06-Dec-17 12:54 33.322250 -117.511571 129 14029ft 184kts
06-Dec-17 12:55 33.285454 -117.469106 129 14026ft 184kts
06-Dec-17 12:56 33.246586 -117.426934 147 13607ft 209kts
06-Dec-17 12:57 33.192189 -117.395897 153 12816ft 223kts
06-Dec-17 12:58 33.134220 -117.369281 154 12103ft 224kts
06-Dec-17 12:59 33.075569 -117.344814 156 11417ft 224kts
06-Dec-17 13:00 33.018117 -117.321920 154 10654ft 213kts
06-Dec-17 13:01 32.961026 -117.298471 154 9478ft 220kts
06-Dec-17 13:02 32.902797 -117.274350 155 8303ft 223kts
06-Dec-17 13:03 32.846179 -117.251397 156 7073ft 196kts
06-Dec-17 13:04 32.805165 -117.229298 108 6703ft 149kts
06-Dec-17 13:05 32.792090 -117.184094 101 6136ft 157kts
06-Dec-17 13:06 32.778893 -117.131669 101 5267ft 171kts
06-Dec-17 13:07 32.766838 -117.077744 108 4502ft 168kts
06-Dec-17 13:08 32.731686 -117.066722 190 3623ft 133kts
06-Dec-17 13:09 32.693405 -117.074162 216 3014ft 148kts
06-Dec-17 13:10 32.702207 -117.109882 314 2005ft 143kts
06-Dec-17 13:11 32.722908 -117.145290 284 734ft 114kts
06-Dec-17 13:12 32.731060 -117.179344 286 88ft 101kts
06-Dec-17 13:13 32.734332 -117.188100 106 16ft 24kts
06-Dec-17 13:14 32.732269 -117.179592 106 18ft 24kts
06-Dec-17 13:15 32.732540 -117.177259 198 26ft 0kts

Navigation Log

Ident Type
Flight plan parsing failed, navigation log unavailable